sensor_id;sensor_type;location;lat;lon;timestamp;P1;durP1;ratioP1;P2;durP2;ratioP2
4317;SDS011;2172;53.576;9.934;2023-06-10T00:00:18;11.67;;;7.00;;
4317;SDS011;2172;53.576;9.934;2023-06-10T00:02:47;11.93;;;6.73;;
4317;SDS011;2172;53.576;9.934;2023-06-10T00:05:16;8.87;;;6.80;;
4317;SDS011;2172;53.576;9.934;2023-06-10T00:07:46;11.93;;;6.50;;
4317;SDS011;2172;53.576;9.934;2023-06-10T00:10:15;11.10;;;7.07;;
4317;SDS011;2172;53.576;9.934;2023-06-10T00:12:42;10.13;;;6.37;;
4317;SDS011;2172;53.576;9.934;2023-06-10T00:15:10;8.03;;;5.30;;
4317;SDS011;2172;53.576;9.934;2023-06-10T00:17:37;8.40;;;5.90;;
4317;SDS011;2172;53.576;9.934;2023-06-10T00:20:07;8.63;;;6.37;;
4317;SDS011;2172;53.576;9.934;2023-06-10T00:22:38;10.50;;;6.90;;
4317;SDS011;2172;53.576;9.934;2023-06-10T00:25:07;11.53;;;6.30;;
4317;SDS011;2172;53.576;9.934;2023-06-10T00:27:35;10.50;;;6.60;;
4317;SDS011;2172;53.576;9.934;2023-06-10T00:30:03;7.53;;;5.70;;
4317;SDS011;2172;53.576;9.934;2023-06-10T00:32:32;8.63;;;6.03;;
4317;SDS011;2172;53.576;9.934;2023-06-10T00:35:01;10.07;;;5.40;;
4317;SDS011;2172;53.576;9.934;2023-06-10T00:37:30;8.80;;;5.90;;
4317;SDS011;2172;53.576;9.934;2023-06-10T00:40:01;9.10;;;5.13;;
4317;SDS011;2172;53.576;9.934;2023-06-10T00:42:31;8.80;;;5.73;;
4317;SDS011;2172;53.576;9.934;2023-06-10T00:44:58;7.57;;;5.77;;
4317;SDS011;2172;53.576;9.934;2023-06-10T00:47:26;10.30;;;5.53;;
4317;SDS011;2172;53.576;9.934;2023-06-10T00:49:54;10.57;;;5.60;;
4317;SDS011;2172;53.576;9.934;2023-06-10T00:52:23;9.30;;;5.47;;
4317;SDS011;2172;53.576;9.934;2023-06-10T00:54:54;12.33;;;5.10;;
4317;SDS011;2172;53.576;9.934;2023-06-10T00:57:23;10.50;;;5.13;;
4317;SDS011;2172;53.576;9.934;2023-06-10T00:59:51;6.87;;;4.90;;
4317;SDS011;2172;53.576;9.934;2023-06-10T01:02:20;11.83;;;5.00;;
4317;SDS011;2172;53.576;9.934;2023-06-10T01:04:47;7.60;;;4.60;;
4317;SDS011;2172;53.576;9.934;2023-06-10T01:07:20;7.33;;;5.17;;
4317;SDS011;2172;53.576;9.934;2023-06-10T01:09:54;8.03;;;4.87;;
4317;SDS011;2172;53.576;9.934;2023-06-10T01:12:30;8.47;;;4.60;;
4317;SDS011;2172;53.576;9.934;2023-06-10T01:14:59;11.50;;;5.57;;
4317;SDS011;2172;53.576;9.934;2023-06-10T01:17:29;7.80;;;4.90;;
4317;SDS011;2172;53.576;9.934;2023-06-10T01:19:57;10.10;;;4.77;;
4317;SDS011;2172;53.576;9.934;2023-06-10T01:22:26;10.17;;;5.30;;
4317;SDS011;2172;53.576;9.934;2023-06-10T01:24:57;6.00;;;4.80;;
4317;SDS011;2172;53.576;9.934;2023-06-10T01:27:26;10.40;;;5.27;;
4317;SDS011;2172;53.576;9.934;2023-06-10T01:29:58;8.93;;;4.83;;
4317;SDS011;2172;53.576;9.934;2023-06-10T01:32:33;5.70;;;4.20;;
4317;SDS011;2172;53.576;9.934;2023-06-10T01:35:03;11.77;;;5.40;;
4317;SDS011;2172;53.576;9.934;2023-06-10T01:37:37;8.73;;;5.27;;
4317;SDS011;2172;53.576;9.934;2023-06-10T01:40:07;8.10;;;4.87;;
4317;SDS011;2172;53.576;9.934;2023-06-10T01:42:36;9.60;;;5.00;;
4317;SDS011;2172;53.576;9.934;2023-06-10T01:45:04;13.07;;;4.80;;
4317;SDS011;2172;53.576;9.934;2023-06-10T01:47:32;8.50;;;4.87;;
4317;SDS011;2172;53.576;9.934;2023-06-10T01:50:00;9.60;;;4.80;;
4317;SDS011;2172;53.576;9.934;2023-06-10T01:52:27;9.00;;;4.57;;
4317;SDS011;2172;53.576;9.934;2023-06-10T01:54:56;7.03;;;3.90;;
4317;SDS011;2172;53.576;9.934;2023-06-10T01:57:28;8.80;;;4.00;;
4317;SDS011;2172;53.576;9.934;2023-06-10T01:59:55;8.83;;;4.80;;
4317;SDS011;2172;53.576;9.934;2023-06-10T02:02:23;5.80;;;4.50;;
4317;SDS011;2172;53.576;9.934;2023-06-10T02:04:53;9.33;;;3.97;;
4317;SDS011;2172;53.576;9.934;2023-06-10T02:07:20;5.67;;;3.80;;
4317;SDS011;2172;53.576;9.934;2023-06-10T02:09:48;6.90;;;3.80;;
4317;SDS011;2172;53.576;9.934;2023-06-10T02:12:17;6.90;;;3.93;;
4317;SDS011;2172;53.576;9.934;2023-06-10T02:14:45;11.37;;;3.97;;
4317;SDS011;2172;53.576;9.934;2023-06-10T02:17:12;5.40;;;3.60;;
4317;SDS011;2172;53.576;9.934;2023-06-10T02:19:41;6.63;;;3.80;;
4317;SDS011;2172;53.576;9.934;2023-06-10T02:22:09;7.87;;;4.10;;
4317;SDS011;2172;53.576;9.934;2023-06-10T02:24:38;10.93;;;4.73;;
4317;SDS011;2172;53.576;9.934;2023-06-10T02:27:07;5.50;;;4.13;;
4317;SDS011;2172;53.576;9.934;2023-06-10T02:29:36;8.57;;;3.70;;
4317;SDS011;2172;53.576;9.934;2023-06-10T02:32:05;9.27;;;5.00;;
4317;SDS011;2172;53.576;9.934;2023-06-10T02:34:33;8.77;;;4.53;;
4317;SDS011;2172;53.576;9.934;2023-06-10T02:37:02;8.03;;;3.67;;
4317;SDS011;2172;53.576;9.934;2023-06-10T02:39:30;8.07;;;3.90;;
4317;SDS011;2172;53.576;9.934;2023-06-10T02:41:58;7.00;;;5.03;;
4317;SDS011;2172;53.576;9.934;2023-06-10T02:44:26;7.27;;;4.43;;
4317;SDS011;2172;53.576;9.934;2023-06-10T02:46:55;5.13;;;3.80;;
4317;SDS011;2172;53.576;9.934;2023-06-10T02:49:23;13.70;;;4.00;;
4317;SDS011;2172;53.576;9.934;2023-06-10T02:51:53;5.50;;;3.63;;
4317;SDS011;2172;53.576;9.934;2023-06-10T02:54:23;6.40;;;3.60;;
4317;SDS011;2172;53.576;9.934;2023-06-10T02:56:52;12.93;;;4.17;;
4317;SDS011;2172;53.576;9.934;2023-06-10T02:59:24;5.90;;;3.50;;
4317;SDS011;2172;53.576;9.934;2023-06-10T03:01:53;6.37;;;3.77;;
4317;SDS011;2172;53.576;9.934;2023-06-10T03:04:24;4.70;;;3.37;;
4317;SDS011;2172;53.576;9.934;2023-06-10T03:07:01;8.33;;;4.30;;
4317;SDS011;2172;53.576;9.934;2023-06-10T03:09:32;9.77;;;3.83;;
4317;SDS011;2172;53.576;9.934;2023-06-10T03:12:02;6.13;;;3.83;;
4317;SDS011;2172;53.576;9.934;2023-06-10T03:14:37;8.53;;;3.77;;
4317;SDS011;2172;53.576;9.934;2023-06-10T03:17:07;6.87;;;3.07;;
4317;SDS011;2172;53.576;9.934;2023-06-10T03:19:37;5.80;;;4.47;;
4317;SDS011;2172;53.576;9.934;2023-06-10T03:22:08;6.40;;;3.43;;
4317;SDS011;2172;53.576;9.934;2023-06-10T03:24:41;7.43;;;4.10;;
4317;SDS011;2172;53.576;9.934;2023-06-10T03:27:10;5.43;;;3.20;;
4317;SDS011;2172;53.576;9.934;2023-06-10T03:29:40;12.67;;;3.80;;
4317;SDS011;2172;53.576;9.934;2023-06-10T03:32:09;5.90;;;3.40;;
4317;SDS011;2172;53.576;9.934;2023-06-10T03:34:39;4.93;;;3.63;;
4317;SDS011;2172;53.576;9.934;2023-06-10T03:37:08;6.03;;;3.70;;
4317;SDS011;2172;53.576;9.934;2023-06-10T03:39:36;8.73;;;3.83;;
4317;SDS011;2172;53.576;9.934;2023-06-10T03:42:07;10.53;;;3.70;;
4317;SDS011;2172;53.576;9.934;2023-06-10T03:44:35;5.57;;;3.00;;
4317;SDS011;2172;53.576;9.934;2023-06-10T03:47:04;9.20;;;3.30;;
4317;SDS011;2172;53.576;9.934;2023-06-10T03:49:36;6.13;;;3.33;;
4317;SDS011;2172;53.576;9.934;2023-06-10T03:52:04;8.30;;;3.07;;
4317;SDS011;2172;53.576;9.934;2023-06-10T03:54:32;4.63;;;2.30;;
4317;SDS011;2172;53.576;9.934;2023-06-10T03:57:02;9.10;;;3.30;;
4317;SDS011;2172;53.576;9.934;2023-06-10T03:59:31;8.87;;;3.50;;
4317;SDS011;2172;53.576;9.934;2023-06-10T04:01:58;6.17;;;3.60;;
4317;SDS011;2172;53.576;9.934;2023-06-10T04:04:27;5.27;;;3.30;;
4317;SDS011;2172;53.576;9.934;2023-06-10T04:06:56;6.93;;;3.47;;
4317;SDS011;2172;53.576;9.934;2023-06-10T04:09:25;3.93;;;2.73;;
4317;SDS011;2172;53.576;9.934;2023-06-10T04:11:53;7.47;;;3.17;;
4317;SDS011;2172;53.576;9.934;2023-06-10T04:14:20;7.77;;;3.10;;
4317;SDS011;2172;53.576;9.934;2023-06-10T04:16:49;3.30;;;2.57;;
4317;SDS011;2172;53.576;9.934;2023-06-10T04:19:17;6.30;;;2.97;;
4317;SDS011;2172;53.576;9.934;2023-06-10T04:21:45;6.47;;;3.33;;
4317;SDS011;2172;53.576;9.934;2023-06-10T04:24:14;5.63;;;2.87;;
4317;SDS011;2172;53.576;9.934;2023-06-10T04:26:43;8.57;;;3.30;;
4317;SDS011;2172;53.576;9.934;2023-06-10T04:29:11;6.10;;;3.13;;
4317;SDS011;2172;53.576;9.934;2023-06-10T04:31:39;8.33;;;3.20;;
4317;SDS011;2172;53.576;9.934;2023-06-10T04:34:08;7.00;;;3.20;;
4317;SDS011;2172;53.576;9.934;2023-06-10T04:36:35;6.70;;;3.17;;
4317;SDS011;2172;53.576;9.934;2023-06-10T04:39:03;4.93;;;3.00;;
4317;SDS011;2172;53.576;9.934;2023-06-10T04:41:33;9.70;;;2.93;;
4317;SDS011;2172;53.576;9.934;2023-06-10T04:44:01;10.00;;;3.40;;
4317;SDS011;2172;53.576;9.934;2023-06-10T04:46:28;4.37;;;2.60;;
4317;SDS011;2172;53.576;9.934;2023-06-10T04:48:57;7.73;;;3.70;;
4317;SDS011;2172;53.576;9.934;2023-06-10T04:51:24;7.20;;;3.40;;
4317;SDS011;2172;53.576;9.934;2023-06-10T04:53:52;6.20;;;3.23;;
4317;SDS011;2172;53.576;9.934;2023-06-10T04:56:19;5.80;;;3.20;;
4317;SDS011;2172;53.576;9.934;2023-06-10T04:58:48;10.07;;;3.33;;
4317;SDS011;2172;53.576;9.934;2023-06-10T05:01:16;5.93;;;2.87;;
4317;SDS011;2172;53.576;9.934;2023-06-10T05:03:43;5.07;;;3.10;;
4317;SDS011;2172;53.576;9.934;2023-06-10T05:06:11;5.27;;;2.97;;
4317;SDS011;2172;53.576;9.934;2023-06-10T05:08:38;10.63;;;3.30;;
4317;SDS011;2172;53.576;9.934;2023-06-10T05:11:06;7.93;;;3.40;;
4317;SDS011;2172;53.576;9.934;2023-06-10T05:13:33;7.20;;;3.70;;
4317;SDS011;2172;53.576;9.934;2023-06-10T05:16:02;6.27;;;2.60;;
4317;SDS011;2172;53.576;9.934;2023-06-10T05:18:30;9.30;;;2.90;;
4317;SDS011;2172;53.576;9.934;2023-06-10T05:20:58;5.97;;;3.00;;
4317;SDS011;2172;53.576;9.934;2023-06-10T05:23:25;6.87;;;3.33;;
4317;SDS011;2172;53.576;9.934;2023-06-10T05:25:53;7.13;;;2.70;;
4317;SDS011;2172;53.576;9.934;2023-06-10T05:28:20;8.73;;;3.00;;
4317;SDS011;2172;53.576;9.934;2023-06-10T05:30:48;8.20;;;2.67;;
4317;SDS011;2172;53.576;9.934;2023-06-10T05:33:17;6.90;;;3.23;;
4317;SDS011;2172;53.576;9.934;2023-06-10T05:35:44;10.00;;;3.40;;
4317;SDS011;2172;53.576;9.934;2023-06-10T05:38:12;8.17;;;2.97;;
4317;SDS011;2172;53.576;9.934;2023-06-10T05:40:39;9.10;;;3.23;;
4317;SDS011;2172;53.576;9.934;2023-06-10T05:43:07;5.67;;;2.90;;
4317;SDS011;2172;53.576;9.934;2023-06-10T05:45:34;9.00;;;3.03;;
4317;SDS011;2172;53.576;9.934;2023-06-10T05:48:02;6.70;;;3.30;;
4317;SDS011;2172;53.576;9.934;2023-06-10T05:50:31;6.83;;;3.30;;
4317;SDS011;2172;53.576;9.934;2023-06-10T05:53:03;11.17;;;3.00;;
4317;SDS011;2172;53.576;9.934;2023-06-10T05:55:32;5.47;;;2.73;;
4317;SDS011;2172;53.576;9.934;2023-06-10T05:57:59;4.10;;;2.80;;
4317;SDS011;2172;53.576;9.934;2023-06-10T06:00:27;7.83;;;3.00;;
4317;SDS011;2172;53.576;9.934;2023-06-10T06:02:55;7.80;;;3.00;;
4317;SDS011;2172;53.576;9.934;2023-06-10T06:05:24;5.00;;;2.90;;
4317;SDS011;2172;53.576;9.934;2023-06-10T06:07:53;8.30;;;3.07;;
4317;SDS011;2172;53.576;9.934;2023-06-10T06:10:20;7.33;;;3.23;;
4317;SDS011;2172;53.576;9.934;2023-06-10T06:12:47;5.63;;;2.70;;
4317;SDS011;2172;53.576;9.934;2023-06-10T06:15:15;8.40;;;3.37;;
4317;SDS011;2172;53.576;9.934;2023-06-10T06:17:42;7.73;;;3.13;;
4317;SDS011;2172;53.576;9.934;2023-06-10T06:20:10;7.50;;;3.13;;
4317;SDS011;2172;53.576;9.934;2023-06-10T06:22:38;6.73;;;2.73;;
4317;SDS011;2172;53.576;9.934;2023-06-10T06:25:07;11.07;;;3.50;;
4317;SDS011;2172;53.576;9.934;2023-06-10T06:27:53;6.87;;;3.53;;
4317;SDS011;2172;53.576;9.934;2023-06-10T06:30:21;5.60;;;2.97;;
4317;SDS011;2172;53.576;9.934;2023-06-10T06:32:48;3.73;;;2.73;;
4317;SDS011;2172;53.576;9.934;2023-06-10T06:35:17;5.47;;;2.73;;
4317;SDS011;2172;53.576;9.934;2023-06-10T06:37:47;8.53;;;3.23;;
4317;SDS011;2172;53.576;9.934;2023-06-10T06:40:25;8.80;;;3.40;;
4317;SDS011;2172;53.576;9.934;2023-06-10T06:42:53;7.60;;;3.10;;
4317;SDS011;2172;53.576;9.934;2023-06-10T06:45:49;5.57;;;3.33;;
4317;SDS011;2172;53.576;9.934;2023-06-10T06:48:16;10.13;;;3.33;;
4317;SDS011;2172;53.576;9.934;2023-06-10T06:50:44;7.37;;;3.40;;
4317;SDS011;2172;53.576;9.934;2023-06-10T06:53:12;5.83;;;2.90;;
4317;SDS011;2172;53.576;9.934;2023-06-10T06:55:40;10.43;;;3.80;;
4317;SDS011;2172;53.576;9.934;2023-06-10T06:58:08;5.00;;;2.67;;
4317;SDS011;2172;53.576;9.934;2023-06-10T07:00:35;7.40;;;3.43;;
4317;SDS011;2172;53.576;9.934;2023-06-10T07:03:03;8.13;;;3.73;;
4317;SDS011;2172;53.576;9.934;2023-06-10T07:05:31;5.83;;;2.90;;
4317;SDS011;2172;53.576;9.934;2023-06-10T07:07:58;6.20;;;3.40;;
4317;SDS011;2172;53.576;9.934;2023-06-10T07:10:26;5.70;;;2.83;;
4317;SDS011;2172;53.576;9.934;2023-06-10T07:12:56;10.57;;;4.07;;
4317;SDS011;2172;53.576;9.934;2023-06-10T07:15:23;7.80;;;3.90;;
4317;SDS011;2172;53.576;9.934;2023-06-10T07:17:51;6.83;;;3.77;;
4317;SDS011;2172;53.576;9.934;2023-06-10T07:20:18;6.57;;;3.23;;
4317;SDS011;2172;53.576;9.934;2023-06-10T07:22:46;9.27;;;2.73;;
4317;SDS011;2172;53.576;9.934;2023-06-10T07:25:13;6.90;;;3.20;;
4317;SDS011;2172;53.576;9.934;2023-06-10T07:27:41;7.23;;;3.97;;
4317;SDS011;2172;53.576;9.934;2023-06-10T07:30:10;6.13;;;3.90;;
4317;SDS011;2172;53.576;9.934;2023-06-10T07:32:38;5.40;;;3.60;;
4317;SDS011;2172;53.576;9.934;2023-06-10T07:35:08;4.80;;;2.83;;
4317;SDS011;2172;53.576;9.934;2023-06-10T07:37:36;7.43;;;3.30;;
4317;SDS011;2172;53.576;9.934;2023-06-10T07:40:04;9.20;;;3.57;;
4317;SDS011;2172;53.576;9.934;2023-06-10T07:42:34;5.97;;;3.23;;
4317;SDS011;2172;53.576;9.934;2023-06-10T07:45:02;6.87;;;3.40;;
4317;SDS011;2172;53.576;9.934;2023-06-10T07:47:32;11.03;;;3.60;;
4317;SDS011;2172;53.576;9.934;2023-06-10T07:50:00;6.10;;;3.50;;
4317;SDS011;2172;53.576;9.934;2023-06-10T07:52:28;7.27;;;3.50;;
4317;SDS011;2172;53.576;9.934;2023-06-10T07:54:56;8.00;;;3.83;;
4317;SDS011;2172;53.576;9.934;2023-06-10T07:57:23;9.10;;;3.60;;
4317;SDS011;2172;53.576;9.934;2023-06-10T07:59:51;7.67;;;4.17;;
4317;SDS011;2172;53.576;9.934;2023-06-10T08:02:20;11.47;;;3.80;;
4317;SDS011;2172;53.576;9.934;2023-06-10T08:04:52;7.97;;;3.70;;
4317;SDS011;2172;53.576;9.934;2023-06-10T08:07:19;5.10;;;3.80;;
4317;SDS011;2172;53.576;9.934;2023-06-10T08:09:47;7.33;;;3.87;;
4317;SDS011;2172;53.576;9.934;2023-06-10T08:12:14;6.90;;;4.00;;
4317;SDS011;2172;53.576;9.934;2023-06-10T08:14:44;7.10;;;3.17;;
4317;SDS011;2172;53.576;9.934;2023-06-10T08:17:11;7.50;;;3.67;;
4317;SDS011;2172;53.576;9.934;2023-06-10T08:19:39;6.10;;;4.00;;
4317;SDS011;2172;53.576;9.934;2023-06-10T08:22:08;7.37;;;3.70;;
4317;SDS011;2172;53.576;9.934;2023-06-10T08:24:36;7.87;;;3.53;;
4317;SDS011;2172;53.576;9.934;2023-06-10T08:27:04;8.47;;;3.90;;
4317;SDS011;2172;53.576;9.934;2023-06-10T08:29:32;7.73;;;4.23;;
4317;SDS011;2172;53.576;9.934;2023-06-10T08:31:59;7.20;;;3.30;;
4317;SDS011;2172;53.576;9.934;2023-06-10T08:34:28;7.70;;;3.90;;
4317;SDS011;2172;53.576;9.934;2023-06-10T08:36:55;6.50;;;4.60;;
4317;SDS011;2172;53.576;9.934;2023-06-10T08:39:45;5.90;;;3.93;;
4317;SDS011;2172;53.576;9.934;2023-06-10T08:42:15;11.63;;;3.93;;
4317;SDS011;2172;53.576;9.934;2023-06-10T08:44:48;4.37;;;3.57;;
4317;SDS011;2172;53.576;9.934;2023-06-10T08:47:19;7.00;;;3.70;;
4317;SDS011;2172;53.576;9.934;2023-06-10T08:49:49;6.30;;;4.07;;
4317;SDS011;2172;53.576;9.934;2023-06-10T08:52:19;5.80;;;3.93;;
4317;SDS011;2172;53.576;9.934;2023-06-10T08:54:49;5.93;;;4.03;;
4317;SDS011;2172;53.576;9.934;2023-06-10T08:57:21;6.67;;;4.10;;
4317;SDS011;2172;53.576;9.934;2023-06-10T08:59:49;7.60;;;4.00;;
4317;SDS011;2172;53.576;9.934;2023-06-10T09:02:17;9.77;;;4.33;;
4317;SDS011;2172;53.576;9.934;2023-06-10T09:04:45;7.40;;;4.00;;
4317;SDS011;2172;53.576;9.934;2023-06-10T09:07:15;8.90;;;4.43;;
4317;SDS011;2172;53.576;9.934;2023-06-10T09:09:42;9.87;;;4.00;;
4317;SDS011;2172;53.576;9.934;2023-06-10T09:12:13;7.37;;;4.00;;
4317;SDS011;2172;53.576;9.934;2023-06-10T09:14:41;9.17;;;4.20;;
4317;SDS011;2172;53.576;9.934;2023-06-10T09:17:08;6.43;;;4.70;;
4317;SDS011;2172;53.576;9.934;2023-06-10T09:19:36;7.83;;;4.57;;
4317;SDS011;2172;53.576;9.934;2023-06-10T09:22:05;8.47;;;4.63;;
4317;SDS011;2172;53.576;9.934;2023-06-10T09:24:32;6.87;;;4.50;;
4317;SDS011;2172;53.576;9.934;2023-06-10T09:27:03;8.83;;;5.10;;
4317;SDS011;2172;53.576;9.934;2023-06-10T09:29:33;6.63;;;4.53;;
4317;SDS011;2172;53.576;9.934;2023-06-10T09:32:13;7.63;;;4.50;;
4317;SDS011;2172;53.576;9.934;2023-06-10T09:34:40;6.50;;;4.13;;
4317;SDS011;2172;53.576;9.934;2023-06-10T09:37:08;6.73;;;4.40;;
4317;SDS011;2172;53.576;9.934;2023-06-10T09:39:37;8.17;;;4.67;;
4317;SDS011;2172;53.576;9.934;2023-06-10T09:42:15;6.37;;;4.20;;
4317;SDS011;2172;53.576;9.934;2023-06-10T09:44:50;9.10;;;4.30;;
4317;SDS011;2172;53.576;9.934;2023-06-10T09:47:21;8.37;;;4.63;;
4317;SDS011;2172;53.576;9.934;2023-06-10T09:49:48;5.60;;;4.33;;
4317;SDS011;2172;53.576;9.934;2023-06-10T09:52:21;7.30;;;4.60;;
4317;SDS011;2172;53.576;9.934;2023-06-10T09:54:49;7.30;;;4.40;;
4317;SDS011;2172;53.576;9.934;2023-06-10T09:57:17;7.37;;;5.30;;
4317;SDS011;2172;53.576;9.934;2023-06-10T09:59:45;7.63;;;4.70;;
4317;SDS011;2172;53.576;9.934;2023-06-10T10:02:17;8.50;;;4.23;;
4317;SDS011;2172;53.576;9.934;2023-06-10T10:04:45;6.83;;;4.13;;
4317;SDS011;2172;53.576;9.934;2023-06-10T10:07:12;8.43;;;5.70;;
4317;SDS011;2172;53.576;9.934;2023-06-10T10:09:40;12.00;;;9.07;;
4317;SDS011;2172;53.576;9.934;2023-06-10T10:12:09;8.87;;;5.37;;
4317;SDS011;2172;53.576;9.934;2023-06-10T10:14:38;24.73;;;10.40;;
4317;SDS011;2172;53.576;9.934;2023-06-10T10:17:07;7.73;;;4.57;;
4317;SDS011;2172;53.576;9.934;2023-06-10T10:19:40;13.43;;;11.07;;
4317;SDS011;2172;53.576;9.934;2023-06-10T10:22:15;7.70;;;4.50;;
4317;SDS011;2172;53.576;9.934;2023-06-10T10:24:46;16.40;;;12.00;;
4317;SDS011;2172;53.576;9.934;2023-06-10T10:27:18;48.27;;;44.10;;
4317;SDS011;2172;53.576;9.934;2023-06-10T10:29:48;61.07;;;55.93;;
4317;SDS011;2172;53.576;9.934;2023-06-10T10:32:18;12.47;;;11.27;;
4317;SDS011;2172;53.576;9.934;2023-06-10T10:34:53;10.40;;;6.70;;
4317;SDS011;2172;53.576;9.934;2023-06-10T10:37:23;10.67;;;8.33;;
4317;SDS011;2172;53.576;9.934;2023-06-10T10:39:51;10.80;;;7.47;;
4317;SDS011;2172;53.576;9.934;2023-06-10T10:42:18;12.00;;;9.33;;
4317;SDS011;2172;53.576;9.934;2023-06-10T10:44:46;6.57;;;5.23;;
4317;SDS011;2172;53.576;9.934;2023-06-10T10:47:14;15.43;;;7.70;;
4317;SDS011;2172;53.576;9.934;2023-06-10T10:49:43;7.80;;;5.57;;
4317;SDS011;2172;53.576;9.934;2023-06-10T10:52:13;8.50;;;5.77;;
4317;SDS011;2172;53.576;9.934;2023-06-10T10:54:43;9.60;;;5.20;;
4317;SDS011;2172;53.576;9.934;2023-06-10T10:57:15;7.27;;;5.20;;
4317;SDS011;2172;53.576;9.934;2023-06-10T10:59:51;9.63;;;5.40;;
4317;SDS011;2172;53.576;9.934;2023-06-10T11:02:34;11.30;;;5.47;;
4317;SDS011;2172;53.576;9.934;2023-06-10T11:05:05;11.83;;;5.03;;
4317;SDS011;2172;53.576;9.934;2023-06-10T11:07:34;10.07;;;5.10;;
4317;SDS011;2172;53.576;9.934;2023-06-10T11:10:03;8.47;;;5.00;;
4317;SDS011;2172;53.576;9.934;2023-06-10T11:12:49;8.70;;;5.50;;
4317;SDS011;2172;53.576;9.934;2023-06-10T11:15:19;11.23;;;5.20;;
4317;SDS011;2172;53.576;9.934;2023-06-10T11:20:52;11.73;;;5.47;;
4317;SDS011;2172;53.576;9.934;2023-06-10T11:23:26;8.03;;;4.90;;
4317;SDS011;2172;53.576;9.934;2023-06-10T11:26:17;7.03;;;5.43;;
4317;SDS011;2172;53.576;9.934;2023-06-10T11:29:07;10.00;;;5.03;;
4317;SDS011;2172;53.576;9.934;2023-06-10T11:31:43;10.30;;;5.20;;
4317;SDS011;2172;53.576;9.934;2023-06-10T11:34:12;7.80;;;5.10;;
4317;SDS011;2172;53.576;9.934;2023-06-10T11:36:40;6.10;;;4.60;;
4317;SDS011;2172;53.576;9.934;2023-06-10T11:39:12;7.33;;;5.17;;
4317;SDS011;2172;53.576;9.934;2023-06-10T11:41:39;11.07;;;5.80;;
4317;SDS011;2172;53.576;9.934;2023-06-10T11:44:08;7.90;;;5.43;;
4317;SDS011;2172;53.576;9.934;2023-06-10T11:46:36;9.90;;;5.73;;
4317;SDS011;2172;53.576;9.934;2023-06-10T11:49:05;8.13;;;6.10;;
4317;SDS011;2172;53.576;9.934;2023-06-10T11:51:33;9.90;;;5.93;;
4317;SDS011;2172;53.576;9.934;2023-06-10T11:54:02;9.60;;;6.10;;
4317;SDS011;2172;53.576;9.934;2023-06-10T11:56:31;10.50;;;5.43;;
4317;SDS011;2172;53.576;9.934;2023-06-10T11:59:01;9.77;;;6.00;;
4317;SDS011;2172;53.576;9.934;2023-06-10T12:01:31;8.23;;;6.33;;
4317;SDS011;2172;53.576;9.934;2023-06-10T12:04:00;7.97;;;6.50;;
4317;SDS011;2172;53.576;9.934;2023-06-10T12:06:39;10.13;;;6.27;;
4317;SDS011;2172;53.576;9.934;2023-06-10T12:09:13;13.33;;;7.63;;
4317;SDS011;2172;53.576;9.934;2023-06-10T12:11:43;9.83;;;6.93;;
4317;SDS011;2172;53.576;9.934;2023-06-10T12:14:11;10.90;;;6.73;;
4317;SDS011;2172;53.576;9.934;2023-06-10T12:16:39;6.37;;;5.77;;
4317;SDS011;2172;53.576;9.934;2023-06-10T12:19:06;8.70;;;6.47;;
4317;SDS011;2172;53.576;9.934;2023-06-10T12:21:36;7.00;;;6.30;;
4317;SDS011;2172;53.576;9.934;2023-06-10T12:24:05;11.10;;;6.37;;
4317;SDS011;2172;53.576;9.934;2023-06-10T12:26:34;11.33;;;6.53;;
4317;SDS011;2172;53.576;9.934;2023-06-10T12:29:17;8.43;;;6.90;;
4317;SDS011;2172;53.576;9.934;2023-06-10T12:31:55;10.07;;;6.73;;
4317;SDS011;2172;53.576;9.934;2023-06-10T12:34:34;8.37;;;7.43;;
4317;SDS011;2172;53.576;9.934;2023-06-10T12:37:03;9.20;;;6.93;;
4317;SDS011;2172;53.576;9.934;2023-06-10T12:39:31;7.83;;;6.93;;
4317;SDS011;2172;53.576;9.934;2023-06-10T12:41:59;9.57;;;7.23;;
4317;SDS011;2172;53.576;9.934;2023-06-10T12:44:32;8.57;;;7.23;;
4317;SDS011;2172;53.576;9.934;2023-06-10T12:47:01;7.43;;;6.73;;
4317;SDS011;2172;53.576;9.934;2023-06-10T12:49:35;7.57;;;6.33;;
4317;SDS011;2172;53.576;9.934;2023-06-10T12:52:02;10.83;;;6.83;;
4317;SDS011;2172;53.576;9.934;2023-06-10T12:54:30;9.83;;;7.20;;
4317;SDS011;2172;53.576;9.934;2023-06-10T12:56:58;10.37;;;7.17;;
4317;SDS011;2172;53.576;9.934;2023-06-10T12:59:26;9.13;;;6.60;;
4317;SDS011;2172;53.576;9.934;2023-06-10T13:01:57;8.17;;;7.27;;
4317;SDS011;2172;53.576;9.934;2023-06-10T13:04:24;8.20;;;7.10;;
4317;SDS011;2172;53.576;9.934;2023-06-10T13:06:52;10.37;;;7.40;;
4317;SDS011;2172;53.576;9.934;2023-06-10T13:09:20;8.73;;;7.13;;
4317;SDS011;2172;53.576;9.934;2023-06-10T13:11:47;9.40;;;6.47;;
4317;SDS011;2172;53.576;9.934;2023-06-10T13:14:15;9.73;;;7.13;;
4317;SDS011;2172;53.576;9.934;2023-06-10T13:16:43;10.40;;;6.40;;
4317;SDS011;2172;53.576;9.934;2023-06-10T13:19:12;8.03;;;6.60;;
4317;SDS011;2172;53.576;9.934;2023-06-10T13:21:39;9.60;;;7.63;;
4317;SDS011;2172;53.576;9.934;2023-06-10T13:24:07;11.63;;;7.10;;
4317;SDS011;2172;53.576;9.934;2023-06-10T13:26:34;8.70;;;6.67;;
4317;SDS011;2172;53.576;9.934;2023-06-10T13:29:02;7.83;;;7.00;;
4317;SDS011;2172;53.576;9.934;2023-06-10T13:31:30;8.97;;;6.87;;
4317;SDS011;2172;53.576;9.934;2023-06-10T13:33:58;8.00;;;6.67;;
4317;SDS011;2172;53.576;9.934;2023-06-10T13:36:27;7.03;;;6.20;;
4317;SDS011;2172;53.576;9.934;2023-06-10T13:38:54;11.30;;;6.70;;
4317;SDS011;2172;53.576;9.934;2023-06-10T13:41:22;7.90;;;6.23;;
4317;SDS011;2172;53.576;9.934;2023-06-10T13:43:50;6.80;;;6.10;;
4317;SDS011;2172;53.576;9.934;2023-06-10T13:46:17;11.03;;;6.50;;
4317;SDS011;2172;53.576;9.934;2023-06-10T13:48:47;6.70;;;5.13;;
4317;SDS011;2172;53.576;9.934;2023-06-10T13:51:14;9.27;;;6.40;;
4317;SDS011;2172;53.576;9.934;2023-06-10T13:53:43;7.27;;;5.47;;
4317;SDS011;2172;53.576;9.934;2023-06-10T13:56:11;8.53;;;4.70;;
4317;SDS011;2172;53.576;9.934;2023-06-10T13:58:39;13.50;;;5.13;;
4317;SDS011;2172;53.576;9.934;2023-06-10T14:01:08;8.00;;;5.87;;
4317;SDS011;2172;53.576;9.934;2023-06-10T14:03:35;5.87;;;5.13;;
4317;SDS011;2172;53.576;9.934;2023-06-10T14:06:03;8.13;;;6.30;;
4317;SDS011;2172;53.576;9.934;2023-06-10T14:08:31;6.90;;;5.07;;
4317;SDS011;2172;53.576;9.934;2023-06-10T14:10:59;8.90;;;5.53;;
4317;SDS011;2172;53.576;9.934;2023-06-10T14:13:27;8.90;;;5.50;;
4317;SDS011;2172;53.576;9.934;2023-06-10T14:15:55;9.57;;;5.53;;
4317;SDS011;2172;53.576;9.934;2023-06-10T14:18:23;9.20;;;5.23;;
4317;SDS011;2172;53.576;9.934;2023-06-10T14:20:50;11.10;;;5.20;;
4317;SDS011;2172;53.576;9.934;2023-06-10T14:23:18;7.93;;;5.33;;
4317;SDS011;2172;53.576;9.934;2023-06-10T14:25:45;7.83;;;5.30;;
4317;SDS011;2172;53.576;9.934;2023-06-10T14:28:14;6.37;;;5.50;;
4317;SDS011;2172;53.576;9.934;2023-06-10T14:30:42;7.60;;;4.90;;
4317;SDS011;2172;53.576;9.934;2023-06-10T14:33:09;9.57;;;4.60;;
4317;SDS011;2172;53.576;9.934;2023-06-10T14:35:37;8.00;;;4.67;;
4317;SDS011;2172;53.576;9.934;2023-06-10T14:38:04;5.73;;;5.00;;
4317;SDS011;2172;53.576;9.934;2023-06-10T14:40:32;7.13;;;4.83;;
4317;SDS011;2172;53.576;9.934;2023-06-10T14:43:00;10.73;;;5.60;;
4317;SDS011;2172;53.576;9.934;2023-06-10T14:45:31;9.53;;;4.80;;
4317;SDS011;2172;53.576;9.934;2023-06-10T14:47:59;8.87;;;5.27;;
4317;SDS011;2172;53.576;9.934;2023-06-10T14:50:29;8.87;;;4.87;;
4317;SDS011;2172;53.576;9.934;2023-06-10T14:52:57;8.33;;;5.13;;
4317;SDS011;2172;53.576;9.934;2023-06-10T14:55:25;8.87;;;5.27;;
4317;SDS011;2172;53.576;9.934;2023-06-10T14:57:52;7.73;;;5.20;;
4317;SDS011;2172;53.576;9.934;2023-06-10T15:00:20;9.60;;;5.07;;
4317;SDS011;2172;53.576;9.934;2023-06-10T15:02:50;9.77;;;5.60;;
4317;SDS011;2172;53.576;9.934;2023-06-10T15:05:18;8.53;;;5.27;;
4317;SDS011;2172;53.576;9.934;2023-06-10T15:07:46;10.17;;;5.30;;
4317;SDS011;2172;53.576;9.934;2023-06-10T15:10:14;6.03;;;5.00;;
4317;SDS011;2172;53.576;9.934;2023-06-10T15:12:43;6.17;;;4.80;;
4317;SDS011;2172;53.576;9.934;2023-06-10T15:15:10;5.17;;;4.30;;
4317;SDS011;2172;53.576;9.934;2023-06-10T15:17:38;11.93;;;4.90;;
4317;SDS011;2172;53.576;9.934;2023-06-10T15:20:07;8.63;;;4.83;;
4317;SDS011;2172;53.576;9.934;2023-06-10T15:22:35;5.83;;;4.90;;
4317;SDS011;2172;53.576;9.934;2023-06-10T15:25:03;9.33;;;5.73;;
4317;SDS011;2172;53.576;9.934;2023-06-10T15:27:31;7.60;;;5.60;;